sensor_id;sensor_type;location;lat;lon;timestamp;pressure;altitude;pressure_sealevel;temperature;humidity
21960;BME280;11144;43.030;25.108;2023-03-01T00:00:19;100084.00;;;6.98;100.00
21960;BME280;11144;43.030;25.108;2023-03-01T00:01:52;100077.91;;;6.96;100.00
21960;BME280;11144;43.030;25.108;2023-03-01T00:03:26;100075.25;;;6.96;100.00
21960;BME280;11144;43.030;25.108;2023-03-01T00:04:59;100066.50;;;6.93;100.00
21960;BME280;11144;43.030;25.108;2023-03-01T00:06:32;100059.53;;;6.89;100.00
21960;BME280;11144;43.030;25.108;2023-03-01T00:08:05;100062.19;;;6.87;100.00
21960;BME280;11144;43.030;25.108;2023-03-01T00:09:39;100056.06;;;6.87;100.00
21960;BME280;11144;43.030;25.108;2023-03-01T00:11:13;100058.69;;;6.88;100.00
21960;BME280;11144;43.030;25.108;2023-03-01T00:12:48;100058.66;;;6.91;100.00
21960;BME280;11144;43.030;25.108;2023-03-01T00:14:21;100055.16;;;6.92;100.00
21960;BME280;11144;43.030;25.108;2023-03-01T00:15:55;100058.63;;;6.94;100.00
21960;BME280;11144;43.030;25.108;2023-03-01T00:17:27;100061.22;;;6.99;100.00
21960;BME280;11144;43.030;25.108;2023-03-01T00:19:02;100068.22;;;7.00;100.00
21960;BME280;11144;43.030;25.108;2023-03-01T00:20:35;100076.09;;;6.98;100.00
21960;BME280;11144;43.030;25.108;2023-03-01T00:22:08;100076.09;;;6.98;100.00
21960;BME280;11144;43.030;25.108;2023-03-01T00:23:41;100069.13;;;6.97;100.00
21960;BME280;11144;43.030;25.108;2023-03-01T00:25:15;100076.09;;;6.98;100.00
21960;BME280;11144;43.030;25.108;2023-03-01T00:26:47;100070.84;;;6.98;100.00
21960;BME280;11144;43.030;25.108;2023-03-01T00:28:23;100068.19;;;7.01;100.00
21960;BME280;11144;43.030;25.108;2023-03-01T00:29:55;100069.06;;;7.03;100.00
21960;BME280;11144;43.030;25.108;2023-03-01T00:31:31;100060.31;;;6.98;100.00
21960;BME280;11144;43.030;25.108;2023-03-01T00:33:05;100059.47;;;7.01;100.00
21960;BME280;11144;43.030;25.108;2023-03-01T00:34:38;100054.13;;;7.05;100.00
21960;BME280;11144;43.030;25.108;2023-03-01T00:36:14;100046.19;;;7.12;100.00
21960;BME280;11144;43.030;25.108;2023-03-01T00:37:47;100033.88;;;7.13;100.00
21960;BME280;11144;43.030;25.108;2023-03-01T00:39:25;100029.50;;;7.16;100.00
21960;BME280;11144;43.030;25.108;2023-03-01T00:41:03;100030.38;;;7.16;100.00
21960;BME280;11144;43.030;25.108;2023-03-01T00:42:36;100033.03;;;7.13;100.00
21960;BME280;11144;43.030;25.108;2023-03-01T00:44:11;100028.63;;;7.13;100.00
21960;BME280;11144;43.030;25.108;2023-03-01T00:45:45;100023.44;;;7.11;100.00
21960;BME280;11144;43.030;25.108;2023-03-01T00:47:17;100017.31;;;7.07;100.00
21960;BME280;11144;43.030;25.108;2023-03-01T00:48:51;100014.72;;;7.02;100.00
21960;BME280;11144;43.030;25.108;2023-03-01T00:50:25;100019.16;;;6.99;100.00
21960;BME280;11144;43.030;25.108;2023-03-01T00:51:59;100013.00;;;6.98;100.00
21960;BME280;11144;43.030;25.108;2023-03-01T00:53:32;100015.63;;;7.00;100.00
21960;BME280;11144;43.030;25.108;2023-03-01T00:55:06;100019.16;;;6.99;100.00
21960;BME280;11144;43.030;25.108;2023-03-01T00:56:39;100011.28;;;6.97;100.00
21960;BME280;11144;43.030;25.108;2023-03-01T00:58:13;100007.75;;;6.98;100.00
21960;BME280;11144;43.030;25.108;2023-03-01T00:59:48;100004.25;;;6.99;100.00
21960;BME280;11144;43.030;25.108;2023-03-01T01:01:23;100010.50;;;6.89;100.00
21960;BME280;11144;43.030;25.108;2023-03-01T01:02:59;100016.66;;;6.88;100.00
21960;BME280;11144;43.030;25.108;2023-03-01T01:04:32;100010.50;;;6.89;100.00
21960;BME280;11144;43.030;25.108;2023-03-01T01:06:05;100009.53;;;6.99;100.00
21960;BME280;11144;43.030;25.108;2023-03-01T01:07:41;100026.13;;;7.01;100.00
21960;BME280;11144;43.030;25.108;2023-03-01T01:09:18;100019.09;;;7.05;100.00
21960;BME280;11144;43.030;25.108;2023-03-01T01:10:52;100026.09;;;7.06;100.00
21960;BME280;11144;43.030;25.108;2023-03-01T01:12:25;100026.97;;;7.07;100.00
21960;BME280;11144;43.030;25.108;2023-03-01T01:13:58;100021.66;;;7.09;100.00
21960;BME280;11144;43.030;25.108;2023-03-01T01:15:35;100019.91;;;7.12;100.00
21960;BME280;11144;43.030;25.108;2023-03-01T01:17:08;100019.91;;;7.10;100.00
21960;BME280;11144;43.030;25.108;2023-03-01T01:18:42;100021.66;;;7.09;100.00
21960;BME280;11144;43.030;25.108;2023-03-01T01:20:14;100019.94;;;7.08;100.00
21960;BME280;11144;43.030;25.108;2023-03-01T01:21:48;100021.66;;;7.11;100.00
21960;BME280;11144;43.030;25.108;2023-03-01T01:23:21;100019.91;;;7.12;100.00
21960;BME280;11144;43.030;25.108;2023-03-01T01:24:54;100024.28;;;7.09;100.00
21960;BME280;11144;43.030;25.108;2023-03-01T01:26:29;100013.78;;;7.09;100.00
21960;BME280;11144;43.030;25.108;2023-03-01T01:28:03;100022.50;;;7.13;100.00
21960;BME280;11144;43.030;25.108;2023-03-01T01:29:35;100007.59;;;7.13;100.00
21960;BME280;11144;43.030;25.108;2023-03-01T01:31:11;100011.13;;;7.13;100.00
21960;BME280;11144;43.030;25.108;2023-03-01T01:32:44;100009.34;;;7.15;100.00
21960;BME280;11144;43.030;25.108;2023-03-01T01:34:20;100011.06;;;7.17;100.00
21960;BME280;11144;43.030;25.108;2023-03-01T01:35:54;100003.22;;;7.14;100.00
21960;BME280;11144;43.030;25.108;2023-03-01T01:37:26;100008.47;;;7.16;100.00
21960;BME280;11144;43.030;25.108;2023-03-01T01:39:03;100011.97;;;7.16;100.00
21960;BME280;11144;43.030;25.108;2023-03-01T01:40:43;100003.19;;;7.16;100.00
21960;BME280;11144;43.030;25.108;2023-03-01T01:42:17;100002.31;;;7.17;100.00
21960;BME280;11144;43.030;25.108;2023-03-01T01:44:16;100000.59;;;7.13;100.00
21960;BME280;11144;43.030;25.108;2023-03-01T01:45:49;99998.88;;;7.08;100.00
21960;BME280;11144;43.030;25.108;2023-03-01T01:47:24;100000.69;;;7.07;100.00
21960;BME280;11144;43.030;25.108;2023-03-01T01:49:00;99993.66;;;7.04;100.00
21960;BME280;11144;43.030;25.108;2023-03-01T01:50:35;99998.94;;;7.02;100.00
21960;BME280;11144;43.030;25.108;2023-03-01T01:52:15;100002.47;;;7.01;100.00
21960;BME280;11144;43.030;25.108;2023-03-01T01:53:54;100000.75;;;7.00;100.00
21960;BME280;11144;43.030;25.108;2023-03-01T01:55:31;99993.75;;;6.98;100.00
21960;BME280;11144;43.030;25.108;2023-03-01T01:57:08;99997.31;;;6.95;100.00
21960;BME280;11144;43.030;25.108;2023-03-01T01:58:44;99992.94;;;6.91;100.00
21960;BME280;11144;43.030;25.108;2023-03-01T02:00:19;99999.09;;;6.87;100.00
21960;BME280;11144;43.030;25.108;2023-03-01T02:01:54;100000.00;;;6.86;100.00
21960;BME280;11144;43.030;25.108;2023-03-01T02:03:31;99997.38;;;6.86;100.00
21960;BME280;11144;43.030;25.108;2023-03-01T02:05:12;99999.09;;;6.87;100.00
21960;BME280;11144;43.030;25.108;2023-03-01T02:06:51;99993.91;;;6.84;100.00
21960;BME280;11144;43.030;25.108;2023-03-01T02:08:29;99995.66;;;6.85;100.00
21960;BME280;11144;43.030;25.108;2023-03-01T02:10:04;99997.38;;;6.86;100.00
21960;BME280;11144;43.030;25.108;2023-03-01T02:11:37;100006.06;;;6.91;100.00
21960;BME280;11144;43.030;25.108;2023-03-01T02:13:11;99991.16;;;6.95;100.00
21960;BME280;11144;43.030;25.108;2023-03-01T02:14:45;99999.06;;;6.93;100.00
21960;BME280;11144;43.030;25.108;2023-03-01T02:16:18;100008.66;;;6.96;100.00
21960;BME280;11144;43.030;25.108;2023-03-01T02:17:52;99991.97;;;6.98;100.00
21960;BME280;11144;43.030;25.108;2023-03-01T02:19:35;99995.44;;;7.03;100.00
21960;BME280;11144;43.030;25.108;2023-03-01T02:21:30;99990.09;;;7.09;100.00
21960;BME280;11144;43.030;25.108;2023-03-01T02:23:07;99998.88;;;7.12;100.00
21960;BME280;11144;43.030;25.108;2023-03-01T02:24:45;100002.31;;;7.15;100.00
21960;BME280;11144;43.030;25.108;2023-03-01T02:26:29;99990.97;;;7.12;100.00
21960;BME280;11144;43.030;25.108;2023-03-01T02:28:20;99995.38;;;7.09;100.00
21960;BME280;11144;43.030;25.108;2023-03-01T02:29:54;99982.31;;;7.03;100.00
21960;BME280;11144;43.030;25.108;2023-03-01T02:31:28;99983.25;;;6.96;100.00
21960;BME280;11144;43.030;25.108;2023-03-01T02:33:16;99980.66;;;6.92;100.00
21960;BME280;11144;43.030;25.108;2023-03-01T02:34:49;99981.59;;;6.88;100.00
21960;BME280;11144;43.030;25.108;2023-03-01T02:36:26;99990.38;;;6.85;100.00
21960;BME280;11144;43.030;25.108;2023-03-01T02:38:01;99986.91;;;6.80;100.00
21960;BME280;11144;43.030;25.108;2023-03-01T02:39:38;99979.94;;;6.79;100.00
21960;BME280;11144;43.030;25.108;2023-03-01T02:41:16;99986.06;;;6.80;100.00
21960;BME280;11144;43.030;25.108;2023-03-01T02:42:53;99985.13;;;6.85;100.00
21960;BME280;11144;43.030;25.108;2023-03-01T02:44:28;99985.09;;;6.88;100.00
21960;BME280;11144;43.030;25.108;2023-03-01T02:46:04;99979.78;;;6.91;100.00
21960;BME280;11144;43.030;25.108;2023-03-01T02:47:37;99978.00;;;6.96;100.00
21960;BME280;11144;43.030;25.108;2023-03-01T02:49:23;99983.22;;;6.99;100.00
21960;BME280;11144;43.030;25.108;2023-03-01T02:51:04;99977.03;;;7.05;100.00
21960;BME280;11144;43.030;25.108;2023-03-01T02:52:45;99988.38;;;7.08;100.00
21960;BME280;11144;43.030;25.108;2023-03-01T02:54:25;99983.09;;;7.12;100.00
21960;BME280;11144;43.030;25.108;2023-03-01T02:56:00;99990.97;;;7.13;100.00
21960;BME280;11144;43.030;25.108;2023-03-01T02:57:36;99988.31;;;7.15;100.00
21960;BME280;11144;43.030;25.108;2023-03-01T02:59:11;99990.06;;;7.13;100.00
21960;BME280;11144;43.030;25.108;2023-03-01T03:00:46;99977.81;;;7.12;100.00
21960;BME280;11144;43.030;25.108;2023-03-01T03:02:24;99990.09;;;7.09;100.00
21960;BME280;11144;43.030;25.108;2023-03-01T03:04:26;99990.16;;;7.07;100.00
21960;BME280;11144;43.030;25.108;2023-03-01T03:05:59;99990.19;;;7.03;100.00
21960;BME280;11144;43.030;25.108;2023-03-01T03:07:35;99995.50;;;6.97;100.00
21960;BME280;11144;43.030;25.108;2023-03-01T03:09:08;99987.72;;;6.90;100.00
21960;BME280;11144;43.030;25.108;2023-03-01T03:10:42;99979.84;;;6.88;100.00
21960;BME280;11144;43.030;25.108;2023-03-01T03:12:15;99982.50;;;6.87;100.00
21960;BME280;11144;43.030;25.108;2023-03-01T03:13:49;99981.59;;;6.86;100.00
21960;BME280;11144;43.030;25.108;2023-03-01T03:15:22;99981.59;;;6.86;100.00
21960;BME280;11144;43.030;25.108;2023-03-01T03:16:57;99995.66;;;6.85;100.00
21960;BME280;11144;43.030;25.108;2023-03-01T03:18:31;99990.41;;;6.81;100.00
21960;BME280;11144;43.030;25.108;2023-03-01T03:20:06;99985.19;;;6.79;100.00
21960;BME280;11144;43.030;25.108;2023-03-01T03:21:43;99990.41;;;6.82;100.00
21960;BME280;11144;43.030;25.108;2023-03-01T03:23:16;99993.91;;;6.83;100.00
21960;BME280;11144;43.030;25.108;2023-03-01T03:24:49;99982.50;;;6.84;100.00
21960;BME280;11144;43.030;25.108;2023-03-01T03:26:22;99983.34;;;6.87;100.00
21960;BME280;11144;43.030;25.108;2023-03-01T03:27:54;99988.59;;;6.87;100.00
21960;BME280;11144;43.030;25.108;2023-03-01T03:29:29;99979.91;;;6.82;100.00
21960;BME280;11144;43.030;25.108;2023-03-01T03:31:05;99986.97;;;6.77;100.00
21960;BME280;11144;43.030;25.108;2023-03-01T03:32:41;99981.72;;;6.77;100.00
21960;BME280;11144;43.030;25.108;2023-03-01T03:34:24;99980.81;;;6.80;100.00
21960;BME280;11144;43.030;25.108;2023-03-01T03:35:57;99984.34;;;6.77;100.00
21960;BME280;11144;43.030;25.108;2023-03-01T03:37:30;99980.03;;;6.72;100.00
21960;BME280;11144;43.030;25.108;2023-03-01T03:39:21;99979.13;;;6.71;100.00
21960;BME280;11144;43.030;25.108;2023-03-01T03:41:00;99979.16;;;6.67;100.00
21960;BME280;11144;43.030;25.108;2023-03-01T03:42:33;99980.88;;;6.71;100.00
21960;BME280;11144;43.030;25.108;2023-03-01T03:44:06;99984.50;;;6.59;100.00
21960;BME280;11144;43.030;25.108;2023-03-01T03:45:40;99984.44;;;6.64;100.00
21960;BME280;11144;43.030;25.108;2023-03-01T03:47:13;99984.41;;;6.68;100.00
21960;BME280;11144;43.030;25.108;2023-03-01T03:48:49;99987.94;;;6.67;100.00
21960;BME280;11144;43.030;25.108;2023-03-01T03:50:22;99984.44;;;6.67;100.00
21960;BME280;11144;43.030;25.108;2023-03-01T03:51:54;99983.53;;;6.69;100.00
21960;BME280;11144;43.030;25.108;2023-03-01T03:53:29;99983.59;;;6.63;100.00
21960;BME280;11144;43.030;25.108;2023-03-01T03:55:03;99988.84;;;6.63;100.00
21960;BME280;11144;43.030;25.108;2023-03-01T03:56:35;99985.34;;;6.61;100.00
21960;BME280;11144;43.030;25.108;2023-03-01T03:58:11;99980.97;;;6.63;100.00
21960;BME280;11144;43.030;25.108;2023-03-01T03:59:43;99985.31;;;6.67;100.00
21960;BME280;11144;43.030;25.108;2023-03-01T04:01:17;99986.16;;;6.69;100.00
21960;BME280;11144;43.030;25.108;2023-03-01T04:02:50;99980.03;;;6.70;100.00
21960;BME280;11144;43.030;25.108;2023-03-01T04:04:24;99979.13;;;6.74;100.00
21960;BME280;11144;43.030;25.108;2023-03-01T04:05:58;99981.75;;;6.71;100.00
21960;BME280;11144;43.030;25.108;2023-03-01T04:07:32;99980.03;;;6.70;100.00
21960;BME280;11144;43.030;25.108;2023-03-01T04:09:04;99978.25;;;6.72;100.00
21960;BME280;11144;43.030;25.108;2023-03-01T04:10:39;99981.75;;;6.71;100.00
21960;BME280;11144;43.030;25.108;2023-03-01T04:12:12;99981.78;;;6.70;100.00
21960;BME280;11144;43.030;25.108;2023-03-01T04:13:45;99980.88;;;6.71;100.00
21960;BME280;11144;43.030;25.108;2023-03-01T04:15:19;99979.13;;;6.73;100.00
21960;BME280;11144;43.030;25.108;2023-03-01T04:16:51;99985.28;;;6.70;100.00
21960;BME280;11144;43.030;25.108;2023-03-01T04:18:24;99984.38;;;6.74;100.00
21960;BME280;11144;43.030;25.108;2023-03-01T04:19:59;99981.66;;;6.80;100.00
21960;BME280;11144;43.030;25.108;2023-03-01T04:21:37;99981.63;;;6.83;100.00
21960;BME280;11144;43.030;25.108;2023-03-01T04:23:13;99985.09;;;6.88;100.00
21960;BME280;11144;43.030;25.108;2023-03-01T04:24:47;99976.31;;;6.89;100.00
21960;BME280;11144;43.030;25.108;2023-03-01T04:26:21;99985.03;;;6.91;100.00
21960;BME280;11144;43.030;25.108;2023-03-01T04:27:54;99978.06;;;6.90;100.00
21960;BME280;11144;43.030;25.108;2023-03-01T04:29:27;99979.84;;;6.90;100.00
21960;BME280;11144;43.030;25.108;2023-03-01T04:31:04;99985.03;;;6.94;100.00
21960;BME280;11144;43.030;25.108;2023-03-01T04:32:45;99986.75;;;6.97;100.00
21960;BME280;11144;43.030;25.108;2023-03-01T04:34:18;99988.50;;;6.99;100.00
21960;BME280;11144;43.030;25.108;2023-03-01T04:35:53;99981.44;;;7.03;100.00
21960;BME280;11144;43.030;25.108;2023-03-01T04:37:26;99985.03;;;6.94;100.00
21960;BME280;11144;43.030;25.108;2023-03-01T04:39:01;99980.66;;;6.92;100.00
21960;BME280;11144;43.030;25.108;2023-03-01T04:40:44;99983.34;;;6.87;100.00
21960;BME280;11144;43.030;25.108;2023-03-01T04:42:17;99993.06;;;6.79;100.00
21960;BME280;11144;43.030;25.108;2023-03-01T04:43:51;99985.25;;;6.73;100.00
21960;BME280;11144;43.030;25.108;2023-03-01T04:45:24;99985.22;;;6.76;100.00
21960;BME280;11144;43.030;25.108;2023-03-01T04:46:57;99983.50;;;6.72;100.00
21960;BME280;11144;43.030;25.108;2023-03-01T04:48:30;99992.28;;;6.71;100.00
21960;BME280;11144;43.030;25.108;2023-03-01T04:50:05;99990.53;;;6.70;100.00
21960;BME280;11144;43.030;25.108;2023-03-01T04:51:40;99985.25;;;6.73;100.00
21960;BME280;11144;43.030;25.108;2023-03-01T04:53:13;99993.97;;;6.75;100.00
21960;BME280;11144;43.030;25.108;2023-03-01T04:54:46;99993.09;;;6.76;100.00
21960;BME280;11144;43.030;25.108;2023-03-01T04:56:19;99988.72;;;6.78;100.00
21960;BME280;11144;43.030;25.108;2023-03-01T04:57:55;99989.53;;;6.80;100.00
21960;BME280;11144;43.030;25.108;2023-03-01T04:59:27;99997.44;;;6.80;100.00
21960;BME280;11144;43.030;25.108;2023-03-01T05:01:01;99993.94;;;6.81;100.00
21960;BME280;11144;43.030;25.108;2023-03-01T05:02:34;99988.69;;;6.81;100.00
21960;BME280;11144;43.030;25.108;2023-03-01T05:04:08;99990.41;;;6.82;100.00
21960;BME280;11144;43.030;25.108;2023-03-01T05:05:47;99990.38;;;6.88;100.00
21960;BME280;11144;43.030;25.108;2023-03-01T05:07:21;99982.41;;;6.93;100.00
21960;BME280;11144;43.030;25.108;2023-03-01T05:08:56;99979.78;;;6.91;100.00
21960;BME280;11144;43.030;25.108;2023-03-01T05:10:31;99985.09;;;6.88;100.00
21960;BME280;11144;43.030;25.108;2023-03-01T05:12:05;99987.66;;;6.91;100.00
21960;BME280;11144;43.030;25.108;2023-03-01T05:13:39;99983.31;;;6.90;100.00
21960;BME280;11144;43.030;25.108;2023-03-01T05:15:12;99989.47;;;6.89;100.00
21960;BME280;11144;43.030;25.108;2023-03-01T05:16:46;99993.91;;;6.84;100.00
21960;BME280;11144;43.030;25.108;2023-03-01T05:18:20;99997.41;;;6.83;100.00
21960;BME280;11144;43.030;25.108;2023-03-01T05:19:53;99996.47;;;6.87;100.00
21960;BME280;11144;43.030;25.108;2023-03-01T05:21:27;99993.00;;;6.87;100.00
21960;BME280;11144;43.030;25.108;2023-03-01T05:23:02;99990.38;;;6.88;100.00
21960;BME280;11144;43.030;25.108;2023-03-01T05:24:37;99985.97;;;6.87;100.00
21960;BME280;11144;43.030;25.108;2023-03-01T05:26:10;99985.03;;;6.91;100.00
21960;BME280;11144;43.030;25.108;2023-03-01T05:28:06;99974.59;;;6.88;100.00
21960;BME280;11144;43.030;25.108;2023-03-01T05:29:39;99979.84;;;6.88;100.00
21960;BME280;11144;43.030;25.108;2023-03-01T05:31:13;100001.72;;;6.90;100.00
21960;BME280;11144;43.030;25.108;2023-03-01T05:32:49;99992.06;;;6.92;100.00
21960;BME280;11144;43.030;25.108;2023-03-01T05:34:29;99995.53;;;6.94;100.00
21960;BME280;11144;43.030;25.108;2023-03-01T05:36:04;99994.66;;;6.95;100.00
21960;BME280;11144;43.030;25.108;2023-03-01T05:37:37;99987.63;;;6.96;100.00
21960;BME280;11144;43.030;25.108;2023-03-01T05:39:10;99990.25;;;6.97;100.00
21960;BME280;11144;43.030;25.108;2023-03-01T05:40:45;100004.25;;;6.99;100.00
21960;BME280;11144;43.030;25.108;2023-03-01T05:42:19;100006.00;;;7.00;100.00
21960;BME280;11144;43.030;25.108;2023-03-01T05:43:51;100000.75;;;7.00;100.00
21960;BME280;11144;43.030;25.108;2023-03-01T05:45:26;100006.88;;;6.99;100.00
21960;BME280;11144;43.030;25.108;2023-03-01T05:47:00;99994.59;;;7.00;100.00
21960;BME280;11144;43.030;25.108;2023-03-01T05:48:33;99991.97;;;6.98;100.00
21960;BME280;11144;43.030;25.108;2023-03-01T05:50:07;99996.38;;;6.98;100.00
21960;BME280;11144;43.030;25.108;2023-03-01T05:51:39;99997.31;;;6.95;100.00
21960;BME280;11144;43.030;25.108;2023-03-01T05:53:14;99995.53;;;6.96;100.00
21960;BME280;11144;43.030;25.108;2023-03-01T05:54:49;100006.03;;;6.97;100.00
21960;BME280;11144;43.030;25.108;2023-03-01T05:56:22;99997.25;;;6.98;100.00
21960;BME280;11144;43.030;25.108;2023-03-01T05:57:58;99995.50;;;6.97;100.00
21960;BME280;11144;43.030;25.108;2023-03-01T05:59:31;99996.41;;;6.96;100.00
21960;BME280;11144;43.030;25.108;2023-03-01T06:01:05;99992.88;;;6.97;100.00
21960;BME280;11144;43.030;25.108;2023-03-01T06:02:38;99998.09;;;7.00;100.00
21960;BME280;11144;43.030;25.108;2023-03-01T06:04:11;99995.47;;;7.00;100.00
21960;BME280;11144;43.030;25.108;2023-03-01T06:05:45;99998.13;;;6.99;100.00
21960;BME280;11144;43.030;25.108;2023-03-01T06:07:18;99999.88;;;6.97;100.00
21960;BME280;11144;43.030;25.108;2023-03-01T06:08:52;100005.19;;;6.95;100.00
21960;BME280;11144;43.030;25.108;2023-03-01T06:10:27;100000.75;;;6.97;100.00
21960;BME280;11144;43.030;25.108;2023-03-01T06:12:00;100006.03;;;6.97;100.00
21960;BME280;11144;43.030;25.108;2023-03-01T06:13:34;99998.13;;;6.97;100.00
21960;BME280;11144;43.030;25.108;2023-03-01T06:15:08;100015.66;;;6.97;100.00
21960;BME280;11144;43.030;25.108;2023-03-01T06:16:42;100002.50;;;6.98;100.00
21960;BME280;11144;43.030;25.108;2023-03-01T06:18:15;100007.75;;;6.98;100.00
21960;BME280;11144;43.030;25.108;2023-03-01T06:19:47;100003.38;;;6.97;100.00
21960;BME280;11144;43.030;25.108;2023-03-01T06:21:21;100010.44;;;6.95;100.00
21960;BME280;11144;43.030;25.108;2023-03-01T06:22:54;100013.06;;;6.95;100.00
21960;BME280;11144;43.030;25.108;2023-03-01T06:24:28;100015.75;;;6.89;100.00
21960;BME280;11144;43.030;25.108;2023-03-01T06:26:05;100013.94;;;6.93;100.00
21960;BME280;11144;43.030;25.108;2023-03-01T06:27:39;100013.06;;;6.95;100.00
21960;BME280;11144;43.030;25.108;2023-03-01T06:29:12;100008.75;;;6.88;100.00
21960;BME280;11144;43.030;25.108;2023-03-01T06:30:46;100020.09;;;6.90;100.00
21960;BME280;11144;43.030;25.108;2023-03-01T06:32:19;100007.88;;;6.86;100.00
21960;BME280;11144;43.030;25.108;2023-03-01T06:33:53;100014.84;;;6.90;100.00
21960;BME280;11144;43.030;25.108;2023-03-01T06:35:27;100019.19;;;6.93;100.00
21960;BME280;11144;43.030;25.108;2023-03-01T06:37:02;100018.28;;;6.98;100.00
21960;BME280;11144;43.030;25.108;2023-03-01T06:38:37;100007.75;;;6.98;100.00
21960;BME280;11144;43.030;25.108;2023-03-01T06:40:13;100023.59;;;6.95;100.00
21960;BME280;11144;43.030;25.108;2023-03-01T06:41:48;100013.13;;;6.89;100.00
21960;BME280;11144;43.030;25.108;2023-03-01T06:43:21;100020.13;;;6.87;100.00
21960;BME280;11144;43.030;25.108;2023-03-01T06:44:55;100018.41;;;6.86;100.00
21960;BME280;11144;43.030;25.108;2023-03-01T06:46:28;100019.28;;;6.88;100.00
21960;BME280;11144;43.030;25.108;2023-03-01T06:48:03;100017.53;;;6.86;100.00
21960;BME280;11144;43.030;25.108;2023-03-01T06:49:37;100018.38;;;6.89;100.00
21960;BME280;11144;43.030;25.108;2023-03-01T06:51:10;100016.56;;;6.93;100.00
21960;BME280;11144;43.030;25.108;2023-03-01T06:52:44;100021.81;;;6.94;100.00
21960;BME280;11144;43.030;25.108;2023-03-01T06:54:17;100021.78;;;6.97;100.00
21960;BME280;11144;43.030;25.108;2023-03-01T06:55:54;100019.97;;;7.02;100.00
21960;BME280;11144;43.030;25.108;2023-03-01T06:57:29;100019.09;;;7.05;100.00
21960;BME280;11144;43.030;25.108;2023-03-01T06:59:02;100007.66;;;7.07;100.00
21960;BME280;11144;43.030;25.108;2023-03-01T07:00:36;100016.38;;;7.13;100.00
21960;BME280;11144;43.030;25.108;2023-03-01T07:02:10;100012.91;;;7.11;100.00
21960;BME280;11144;43.030;25.108;2023-03-01T07:03:44;100026.03;;;7.12;100.00
21960;BME280;11144;43.030;25.108;2023-03-01T07:05:18;100016.38;;;7.13;100.00
21960;BME280;11144;43.030;25.108;2023-03-01T07:06:51;100025.16;;;7.12;100.00
21960;BME280;11144;43.030;25.108;2023-03-01T07:08:27;100019.91;;;7.12;100.00
21960;BME280;11144;43.030;25.108;2023-03-01T07:10:00;100018.97;;;7.17;100.00
21960;BME280;11144;43.030;25.108;2023-03-01T07:11:33;100019.75;;;7.24;100.00
21960;BME280;11144;43.030;25.108;2023-03-01T07:13:08;100024.97;;;7.27;100.00
21960;BME280;11144;43.030;25.108;2023-03-01T07:14:43;100017.09;;;7.27;100.00
21960;BME280;11144;43.030;25.108;2023-03-01T07:16:16;100014.50;;;7.24;100.00
21960;BME280;11144;43.030;25.108;2023-03-01T07:17:50;100016.19;;;7.28;100.00
21960;BME280;11144;43.030;25.108;2023-03-01T07:19:23;100022.34;;;7.28;100.00
21960;BME280;11144;43.030;25.108;2023-03-01T07:20:57;100022.31;;;7.30;100.00
21960;BME280;11144;43.030;25.108;2023-03-01T07:22:30;100017.97;;;7.29;100.00
21960;BME280;11144;43.030;25.108;2023-03-01T07:24:05;100011.72;;;7.36;100.00
21960;BME280;11144;43.030;25.108;2023-03-01T07:25:39;100004.69;;;7.36;100.00
21960;BME280;11144;43.030;25.108;2023-03-01T07:27:12;100028.31;;;7.44;100.00
21960;BME280;11144;43.030;25.108;2023-03-01T07:28:47;100021.22;;;7.49;100.00
21960;BME280;11144;43.030;25.108;2023-03-01T07:30:20;100017.69;;;7.50;100.00
21960;BME280;11144;43.030;25.108;2023-03-01T07:31:54;100012.38;;;7.53;100.00
21960;BME280;11144;43.030;25.108;2023-03-01T07:33:28;100025.53;;;7.54;100.00
21960;BME280;11144;43.030;25.108;2023-03-01T07:35:01;100015.94;;;7.49;100.00
21960;BME280;11144;43.030;25.108;2023-03-01T07:36:35;100018.56;;;7.52;100.00
21960;BME280;11144;43.030;25.108;2023-03-01T07:38:08;100010.63;;;7.55;100.00
21960;BME280;11144;43.030;25.108;2023-03-01T07:39:41;100015.78;;;7.62;100.00
21960;BME280;11144;43.030;25.108;2023-03-01T07:41:15;100017.41;;;7.71;100.00
21960;BME280;11144;43.030;25.108;2023-03-01T07:42:48;100013.78;;;7.81;100.00
21960;BME280;11144;43.030;25.108;2023-03-01T07:44:22;100012.88;;;7.83;100.00
21960;BME280;11144;43.030;25.108;2023-03-01T07:45:58;100010.19;;;7.88;100.00
21960;BME280;11144;43.030;25.108;2023-03-01T07:47:32;100008.34;;;7.93;100.00
21960;BME280;11144;43.030;25.108;2023-03-01T07:49:05;100006.53;;;7.95;100.00
21960;BME280;11144;43.030;25.108;2023-03-01T07:50:39;100010.91;;;7.97;100.00
21960;BME280;11144;43.030;25.108;2023-03-01T07:52:12;100005.56;;;8.00;100.00
21960;BME280;11144;43.030;25.108;2023-03-01T07:53:46;99999.47;;;8.00;100.00
21960;BME280;11144;43.030;25.108;2023-03-01T07:55:19;100003.06;;;7.93;100.00
21960;BME280;11144;43.030;25.108;2023-03-01T07:56:52;100001.22;;;7.98;100.00
21960;BME280;11144;43.030;25.108;2023-03-01T07:58:26;100003.06;;;7.93;100.00
21960;BME280;11144;43.030;25.108;2023-03-01T08:00:01;99997.81;;;7.93;100.00
21960;BME280;11144;43.030;25.108;2023-03-01T08:01:42;99995.97;;;7.96;100.00
21960;BME280;11144;43.030;25.108;2023-03-01T08:03:15;99991.84;;;7.79;100.00
21960;BME280;11144;43.030;25.108;2023-03-01T08:04:49;99997.91;;;7.84;100.00
21960;BME280;11144;43.030;25.108;2023-03-01T08:06:22;99996.91;;;7.92;100.00
21960;BME280;11144;43.030;25.108;2023-03-01T08:07:56;100001.19;;;8.01;100.00
21960;BME280;11144;43.030;25.108;2023-03-01T08:09:29;99994.06;;;8.06;100.00
21960;BME280;11144;43.030;25.108;2023-03-01T08:11:05;99995.72;;;8.13;100.00
21960;BME280;11144;43.030;25.108;2023-03-01T08:12:39;100000.91;;;8.22;100.00